sensor_id;sensor_type;location;lat;lon;timestamp;P1;durP1;ratioP1;P2;durP2;ratioP2
75914;SDS011;64593;51.050;13.780;2024-01-15T07:03:52;13.05;;;4.43;;
75914;SDS011;64593;51.050;13.780;2024-01-15T07:08:54;8.90;;;3.92;;
75914;SDS011;64593;51.050;13.780;2024-01-15T07:13:56;13.27;;;4.68;;
75914;SDS011;64593;51.050;13.780;2024-01-15T07:18:58;13.45;;;6.75;;
75914;SDS011;64593;51.050;13.780;2024-01-15T07:24:00;5.85;;;2.40;;
75914;SDS011;64593;51.050;13.780;2024-01-15T07:29:02;12.38;;;5.35;;
75914;SDS011;64593;51.050;13.780;2024-01-15T07:34:23;13.02;;;4.18;;
75914;SDS011;64593;51.050;13.780;2024-01-15T07:39:25;5.22;;;3.00;;
75914;SDS011;64593;51.050;13.780;2024-01-15T07:44:27;10.05;;;4.30;;
75914;SDS011;64593;51.050;13.780;2024-01-15T07:49:29;11.93;;;6.03;;
75914;SDS011;64593;51.050;13.780;2024-01-15T07:54:31;11.35;;;5.32;;
75914;SDS011;64593;51.050;13.780;2024-01-15T07:59:34;13.80;;;5.45;;
75914;SDS011;64593;51.050;13.780;2024-01-15T08:04:37;11.50;;;4.45;;
75914;SDS011;64593;51.050;13.780;2024-01-15T08:09:42;12.55;;;4.75;;
75914;SDS011;64593;51.050;13.780;2024-01-15T08:14:44;9.85;;;3.92;;
75914;SDS011;64593;51.050;13.780;2024-01-15T08:19:46;14.68;;;5.45;;
75914;SDS011;64593;51.050;13.780;2024-01-15T08:24:48;14.70;;;4.90;;
75914;SDS011;64593;51.050;13.780;2024-01-15T08:29:50;11.70;;;5.15;;
75914;SDS011;64593;51.050;13.780;2024-01-15T08:34:52;6.43;;;3.03;;
75914;SDS011;64593;51.050;13.780;2024-01-15T08:40:13;4.18;;;1.80;;
75914;SDS011;64593;51.050;13.780;2024-01-15T08:45:15;14.05;;;4.80;;
75914;SDS011;64593;51.050;13.780;2024-01-15T08:50:35;10.95;;;4.40;;
75914;SDS011;64593;51.050;13.780;2024-01-15T08:55:37;11.98;;;4.85;;
75914;SDS011;64593;51.050;13.780;2024-01-15T09:00:39;8.43;;;3.50;;
75914;SDS011;64593;51.050;13.780;2024-01-15T09:05:41;8.70;;;3.80;;
75914;SDS011;64593;51.050;13.780;2024-01-15T09:10:44;7.68;;;2.83;;
75914;SDS011;64593;51.050;13.780;2024-01-15T09:16:04;12.43;;;4.15;;
75914;SDS011;64593;51.050;13.780;2024-01-15T09:21:06;9.63;;;4.05;;
75914;SDS011;64593;51.050;13.780;2024-01-15T09:26:08;8.65;;;3.25;;
75914;SDS011;64593;51.050;13.780;2024-01-15T09:31:10;8.82;;;3.15;;
75914;SDS011;64593;51.050;13.780;2024-01-15T09:36:13;9.77;;;3.63;;
75914;SDS011;64593;51.050;13.780;2024-01-15T09:41:15;10.60;;;4.40;;
75914;SDS011;64593;51.050;13.780;2024-01-15T09:46:17;8.10;;;3.00;;
75914;SDS011;64593;51.050;13.780;2024-01-15T09:51:37;11.23;;;3.92;;
75914;SDS011;64593;51.050;13.780;2024-01-15T09:56:40;10.65;;;4.32;;
75914;SDS011;64593;51.050;13.780;2024-01-15T10:01:42;10.07;;;4.20;;
75914;SDS011;64593;51.050;13.780;2024-01-15T10:06:45;6.07;;;3.17;;
75914;SDS011;64593;51.050;13.780;2024-01-15T10:11:49;10.27;;;3.88;;
75914;SDS011;64593;51.050;13.780;2024-01-15T10:16:52;5.45;;;2.15;;
75914;SDS011;64593;51.050;13.780;2024-01-15T10:21:56;5.70;;;2.17;;
75914;SDS011;64593;51.050;13.780;2024-01-15T10:27:05;9.63;;;3.72;;
75914;SDS011;64593;51.050;13.780;2024-01-15T10:32:11;12.68;;;3.50;;
75914;SDS011;64593;51.050;13.780;2024-01-15T10:37:13;7.47;;;3.65;;
75914;SDS011;64593;51.050;13.780;2024-01-15T10:42:15;8.73;;;3.75;;
75914;SDS011;64593;51.050;13.780;2024-01-15T10:47:19;8.52;;;3.22;;
75914;SDS011;64593;51.050;13.780;2024-01-15T10:52:21;13.85;;;3.30;;
75914;SDS011;64593;51.050;13.780;2024-01-15T10:57:23;10.52;;;3.40;;
75914;SDS011;64593;51.050;13.780;2024-01-15T11:07:29;9.80;;;3.25;;
75914;SDS011;64593;51.050;13.780;2024-01-15T11:12:32;6.80;;;2.80;;
75914;SDS011;64593;51.050;13.780;2024-01-15T11:18:01;8.52;;;3.17;;
75914;SDS011;64593;51.050;13.780;2024-01-15T11:23:05;8.48;;;3.40;;
75914;SDS011;64593;51.050;13.780;2024-01-15T11:28:06;7.72;;;2.90;;
75914;SDS011;64593;51.050;13.780;2024-01-15T11:33:13;9.85;;;4.10;;
75914;SDS011;64593;51.050;13.780;2024-01-15T11:38:36;10.27;;;3.25;;
75914;SDS011;64593;51.050;13.780;2024-01-15T11:43:38;13.85;;;4.15;;
75914;SDS011;64593;51.050;13.780;2024-01-15T11:48:43;11.18;;;3.08;;
75914;SDS011;64593;51.050;13.780;2024-01-15T11:53:47;9.32;;;3.75;;
75914;SDS011;64593;51.050;13.780;2024-01-15T11:58:50;9.80;;;4.00;;
75914;SDS011;64593;51.050;13.780;2024-01-15T12:03:53;9.23;;;3.75;;
75914;SDS011;64593;51.050;13.780;2024-01-15T12:09:07;8.38;;;4.35;;
75914;SDS011;64593;51.050;13.780;2024-01-15T12:14:09;4.07;;;1.73;;
75914;SDS011;64593;51.050;13.780;2024-01-15T12:19:11;7.72;;;3.22;;
75914;SDS011;64593;51.050;13.780;2024-01-15T12:24:13;8.00;;;2.67;;
75914;SDS011;64593;51.050;13.780;2024-01-15T12:29:33;9.63;;;3.47;;
75914;SDS011;64593;51.050;13.780;2024-01-15T12:34:35;8.18;;;3.08;;
75914;SDS011;64593;51.050;13.780;2024-01-15T12:39:39;11.57;;;3.90;;
75914;SDS011;64593;51.050;13.780;2024-01-15T12:44:45;6.72;;;2.35;;
75914;SDS011;64593;51.050;13.780;2024-01-15T12:49:47;9.93;;;4.75;;
75914;SDS011;64593;51.050;13.780;2024-01-15T12:54:59;9.55;;;5.03;;
75914;SDS011;64593;51.050;13.780;2024-01-15T13:00:02;10.00;;;3.92;;
75914;SDS011;64593;51.050;13.780;2024-01-15T13:05:28;9.10;;;3.00;;
75914;SDS011;64593;51.050;13.780;2024-01-15T13:10:49;6.00;;;2.78;;
75914;SDS011;64593;51.050;13.780;2024-01-15T13:15:53;8.93;;;3.38;;
75914;SDS011;64593;51.050;13.780;2024-01-15T13:20:55;7.22;;;3.67;;
75914;SDS011;64593;51.050;13.780;2024-01-15T13:25:58;8.68;;;3.38;;
75914;SDS011;64593;51.050;13.780;2024-01-15T13:31:00;8.73;;;3.00;;
75914;SDS011;64593;51.050;13.780;2024-01-15T13:36:21;5.20;;;2.38;;
75914;SDS011;64593;51.050;13.780;2024-01-15T13:41:24;12.23;;;4.13;;
75914;SDS011;64593;51.050;13.780;2024-01-15T13:46:29;9.63;;;3.65;;
75914;SDS011;64593;51.050;13.780;2024-01-15T13:51:31;9.85;;;3.67;;
75914;SDS011;64593;51.050;13.780;2024-01-15T13:56:33;11.57;;;4.55;;
75914;SDS011;64593;51.050;13.780;2024-01-15T14:01:55;10.18;;;4.82;;
75914;SDS011;64593;51.050;13.780;2024-01-15T14:06:57;7.50;;;2.85;;
75914;SDS011;64593;51.050;13.780;2024-01-15T14:11:59;8.57;;;3.97;;
75914;SDS011;64593;51.050;13.780;2024-01-15T14:17:01;12.43;;;5.05;;
75914;SDS011;64593;51.050;13.780;2024-01-15T14:22:03;9.98;;;3.95;;
75914;SDS011;64593;51.050;13.780;2024-01-15T14:27:05;12.73;;;4.70;;
75914;SDS011;64593;51.050;13.780;2024-01-15T14:32:08;12.65;;;5.38;;
75914;SDS011;64593;51.050;13.780;2024-01-15T14:37:10;7.55;;;3.75;;
75914;SDS011;64593;51.050;13.780;2024-01-15T14:42:12;9.60;;;3.67;;
75914;SDS011;64593;51.050;13.780;2024-01-15T14:47:14;8.57;;;3.55;;
75914;SDS011;64593;51.050;13.780;2024-01-15T14:52:34;11.00;;;5.70;;
75914;SDS011;64593;51.050;13.780;2024-01-15T14:57:36;11.13;;;4.18;;
75914;SDS011;64593;51.050;13.780;2024-01-15T15:02:38;13.95;;;6.13;;
75914;SDS011;64593;51.050;13.780;2024-01-15T15:07:40;12.07;;;5.28;;
75914;SDS011;64593;51.050;13.780;2024-01-15T15:12:42;11.90;;;4.10;;
75914;SDS011;64593;51.050;13.780;2024-01-15T15:17:45;10.15;;;4.65;;
75914;SDS011;64593;51.050;13.780;2024-01-15T15:22:47;12.80;;;5.95;;
75914;SDS011;64593;51.050;13.780;2024-01-15T15:28:07;7.22;;;3.72;;
75914;SDS011;64593;51.050;13.780;2024-01-15T15:33:10;14.10;;;4.75;;
75914;SDS011;64593;51.050;13.780;2024-01-15T15:38:12;15.40;;;5.20;;
75914;SDS011;64593;51.050;13.780;2024-01-15T15:43:14;13.23;;;6.18;;
75914;SDS011;64593;51.050;13.780;2024-01-15T15:48:15;7.93;;;4.25;;
75914;SDS011;64593;51.050;13.780;2024-01-15T15:53:18;12.02;;;4.78;;
75914;SDS011;64593;51.050;13.780;2024-01-15T15:58:23;9.82;;;4.45;;
75914;SDS011;64593;51.050;13.780;2024-01-15T16:03:24;11.52;;;4.13;;
75914;SDS011;64593;51.050;13.780;2024-01-15T16:08:27;16.00;;;6.07;;
75914;SDS011;64593;51.050;13.780;2024-01-15T16:13:29;9.98;;;4.93;;
75914;SDS011;64593;51.050;13.780;2024-01-15T16:18:31;7.07;;;3.83;;
75914;SDS011;64593;51.050;13.780;2024-01-15T16:23:53;9.88;;;4.05;;
75914;SDS011;64593;51.050;13.780;2024-01-15T16:29:06;10.60;;;4.70;;
75914;SDS011;64593;51.050;13.780;2024-01-15T16:34:08;8.85;;;4.10;;
75914;SDS011;64593;51.050;13.780;2024-01-15T16:39:12;12.90;;;5.25;;
75914;SDS011;64593;51.050;13.780;2024-01-15T16:44:13;9.07;;;4.35;;
75914;SDS011;64593;51.050;13.780;2024-01-15T16:49:15;5.97;;;2.90;;
75914;SDS011;64593;51.050;13.780;2024-01-15T16:54:19;11.70;;;4.35;;
75914;SDS011;64593;51.050;13.780;2024-01-15T16:59:21;5.75;;;2.95;;
75914;SDS011;64593;51.050;13.780;2024-01-15T17:04:41;13.35;;;5.78;;
75914;SDS011;64593;51.050;13.780;2024-01-15T17:09:44;12.18;;;5.40;;
75914;SDS011;64593;51.050;13.780;2024-01-15T17:14:46;15.93;;;6.03;;
75914;SDS011;64593;51.050;13.780;2024-01-15T17:19:48;13.48;;;5.70;;
75914;SDS011;64593;51.050;13.780;2024-01-15T17:24:50;12.35;;;5.18;;
75914;SDS011;64593;51.050;13.780;2024-01-15T17:29:52;12.07;;;5.57;;
75914;SDS011;64593;51.050;13.780;2024-01-15T17:34:56;13.02;;;5.07;;
75914;SDS011;64593;51.050;13.780;2024-01-15T17:40:00;11.57;;;4.40;;
75914;SDS011;64593;51.050;13.780;2024-01-15T17:45:06;11.20;;;4.28;;
75914;SDS011;64593;51.050;13.780;2024-01-15T17:50:09;8.48;;;3.17;;
75914;SDS011;64593;51.050;13.780;2024-01-15T17:55:11;11.07;;;4.22;;
75914;SDS011;64593;51.050;13.780;2024-01-15T18:00:13;10.80;;;4.35;;
75914;SDS011;64593;51.050;13.780;2024-01-15T18:05:16;8.60;;;4.57;;
75914;SDS011;64593;51.050;13.780;2024-01-15T18:10:18;8.88;;;4.10;;
75914;SDS011;64593;51.050;13.780;2024-01-15T18:15:20;8.25;;;4.30;;
75914;SDS011;64593;51.050;13.780;2024-01-15T18:20:22;10.10;;;4.95;;
75914;SDS011;64593;51.050;13.780;2024-01-15T18:25:24;8.23;;;4.15;;
75914;SDS011;64593;51.050;13.780;2024-01-15T18:30:44;11.13;;;4.90;;
75914;SDS011;64593;51.050;13.780;2024-01-15T18:35:46;12.20;;;5.38;;
75914;SDS011;64593;51.050;13.780;2024-01-15T18:40:48;9.60;;;4.13;;
75914;SDS011;64593;51.050;13.780;2024-01-15T18:45:50;10.38;;;5.00;;
75914;SDS011;64593;51.050;13.780;2024-01-15T18:50:52;10.85;;;4.68;;
75914;SDS011;64593;51.050;13.780;2024-01-15T18:55:54;12.77;;;5.38;;
75914;SDS011;64593;51.050;13.780;2024-01-15T19:00:57;15.20;;;6.05;;
75914;SDS011;64593;51.050;13.780;2024-01-15T19:06:00;14.27;;;5.82;;
75914;SDS011;64593;51.050;13.780;2024-01-15T19:11:02;11.27;;;5.45;;
75914;SDS011;64593;51.050;13.780;2024-01-15T19:16:05;12.30;;;6.38;;
75914;SDS011;64593;51.050;13.780;2024-01-15T19:21:07;9.70;;;4.47;;
75914;SDS011;64593;51.050;13.780;2024-01-15T19:26:18;11.25;;;5.18;;
75914;SDS011;64593;51.050;13.780;2024-01-15T19:31:39;10.55;;;5.78;;
75914;SDS011;64593;51.050;13.780;2024-01-15T19:36:59;13.07;;;5.45;;
75914;SDS011;64593;51.050;13.780;2024-01-15T19:42:01;13.40;;;5.88;;
75914;SDS011;64593;51.050;13.780;2024-01-15T19:47:04;13.50;;;5.97;;
75914;SDS011;64593;51.050;13.780;2024-01-15T19:52:06;12.93;;;4.50;;
75914;SDS011;64593;51.050;13.780;2024-01-15T19:57:27;10.23;;;4.82;;
75914;SDS011;64593;51.050;13.780;2024-01-15T20:02:47;9.40;;;3.95;;
75914;SDS011;64593;51.050;13.780;2024-01-15T20:07:49;9.68;;;3.70;;
75914;SDS011;64593;51.050;13.780;2024-01-15T20:12:51;10.95;;;4.30;;
75914;SDS011;64593;51.050;13.780;2024-01-15T20:17:53;10.07;;;4.15;;
75914;SDS011;64593;51.050;13.780;2024-01-15T20:22:55;7.65;;;3.03;;
75914;SDS011;64593;51.050;13.780;2024-01-15T20:27:57;9.43;;;3.30;;
75914;SDS011;64593;51.050;13.780;2024-01-15T20:33:18;5.53;;;2.97;;
75914;SDS011;64593;51.050;13.780;2024-01-15T20:38:21;5.95;;;2.60;;
75914;SDS011;64593;51.050;13.780;2024-01-15T20:43:23;4.93;;;2.72;;
75914;SDS011;64593;51.050;13.780;2024-01-15T20:48:25;5.93;;;2.83;;
75914;SDS011;64593;51.050;13.780;2024-01-15T20:53:28;9.32;;;2.92;;
75914;SDS011;64593;51.050;13.780;2024-01-15T20:58:30;6.43;;;2.88;;
75914;SDS011;64593;51.050;13.780;2024-01-15T21:03:32;5.70;;;2.67;;
75914;SDS011;64593;51.050;13.780;2024-01-15T21:08:34;5.75;;;2.20;;
75914;SDS011;64593;51.050;13.780;2024-01-15T21:13:56;4.72;;;2.53;;
75914;SDS011;64593;51.050;13.780;2024-01-15T21:19:16;3.88;;;1.75;;
75914;SDS011;64593;51.050;13.780;2024-01-15T21:24:18;4.45;;;2.15;;
75914;SDS011;64593;51.050;13.780;2024-01-15T21:29:24;7.30;;;2.65;;
75914;SDS011;64593;51.050;13.780;2024-01-15T21:34:27;5.82;;;2.67;;
75914;SDS011;64593;51.050;13.780;2024-01-15T21:39:29;4.40;;;2.15;;
75914;SDS011;64593;51.050;13.780;2024-01-15T21:44:31;4.22;;;1.40;;
75914;SDS011;64593;51.050;13.780;2024-01-15T21:49:51;3.70;;;1.90;;
75914;SDS011;64593;51.050;13.780;2024-01-15T21:54:53;5.80;;;1.92;;
75914;SDS011;64593;51.050;13.780;2024-01-15T21:59:55;3.25;;;1.63;;
75914;SDS011;64593;51.050;13.780;2024-01-15T22:04:58;4.18;;;1.67;;
75914;SDS011;64593;51.050;13.780;2024-01-15T22:10:00;3.78;;;1.70;;
75914;SDS011;64593;51.050;13.780;2024-01-15T22:15:03;4.30;;;1.90;;
75914;SDS011;64593;51.050;13.780;2024-01-15T22:20:05;2.45;;;1.35;;
75914;SDS011;64593;51.050;13.780;2024-01-15T22:25:08;4.75;;;1.52;;
75914;SDS011;64593;51.050;13.780;2024-01-15T22:30:10;2.90;;;1.83;;
75914;SDS011;64593;51.050;13.780;2024-01-15T22:35:13;2.95;;;1.40;;
75914;SDS011;64593;51.050;13.780;2024-01-15T22:40:15;4.65;;;1.25;;
75914;SDS011;64593;51.050;13.780;2024-01-15T22:45:36;3.13;;;1.50;;
75914;SDS011;64593;51.050;13.780;2024-01-15T22:50:56;6.10;;;2.53;;
75914;SDS011;64593;51.050;13.780;2024-01-15T22:56:00;6.78;;;2.47;;
